Time;durP1;ratioP1;P1;durP2;ratioP2;P2;SDS_P1;SDS_P2;PMS_P1;PMS_P2;Temp;Humidity;BMP_temperature;BMP_pressure;BME280_temperature;BME280_humidity;BME280_pressure;Samples;Min_cycle;Max_cycle;Signal;HPM_P1;HPM_P2
2022/10/12 00:02:21;;;;;;;53.00;29.23;;;5.60;99.90;;;;;;2616764;46;20038;31
2022/10/12 00:04:57;;;;;;;44.95;24.70;;;5.30;99.90;;;;;;2603653;54;20254;31
2022/10/12 00:07:36;;;;;;;48.07;25.83;;;5.60;99.90;;;;;;2603775;54;20058;31
2022/10/12 00:10:11;;;;;;;58.05;31.65;;;5.30;99.90;;;;;;2603517;54;19935;31
2022/10/12 00:12:46;;;;;;;51.35;28.00;;;5.50;99.90;;;;;;2603615;54;20931;31
2022/10/12 00:15:23;;;;;;;40.30;22.40;;;5.20;99.90;;;;;;2603425;54;20899;31
2022/10/12 00:17:58;;;;;;;45.53;25.17;;;5.20;99.90;;;;;;2603537;54;20030;31
2022/10/12 00:20:33;;;;;;;46.80;27.20;;;5.20;99.90;;;;;;2621694;46;20081;31
2022/10/12 00:23:11;;;;;;;43.00;24.23;;;5.20;99.90;;;;;;2603380;54;20058;31
2022/10/12 00:25:45;;;;;;;42.55;25.38;;;5.40;99.90;;;;;;2603531;54;20915;31
2022/10/12 00:28:20;;;;;;;50.75;28.65;;;5.20;99.90;;;;;;2622035;46;20927;31
2022/10/12 00:30:55;;;;;;;47.20;25.70;;;5.10;99.90;;;;;;2621675;46;20038;31
2022/10/12 00:33:30;;;;;;;38.47;23.27;;;5.10;99.90;;;;;;2603460;54;20033;31
2022/10/12 00:36:13;;;;;;;41.67;24.67;;;5.10;99.90;;;;;;2603417;54;20026;31
2022/10/12 00:38:51;;;;;;;38.97;21.58;;;5.50;99.90;;;;;;2621844;46;20900;31
2022/10/12 00:41:27;;;;;;;48.00;25.60;;;5.60;99.90;;;;;;2603551;54;20789;31
2022/10/12 00:44:02;;;;;;;45.25;24.55;;;5.00;99.90;;;;;;2603359;54;20026;31
2022/10/12 00:46:41;;;;;;;42.47;25.20;;;5.00;99.90;;;;;;2603228;54;20875;31
2022/10/12 00:49:17;;;;;;;47.75;27.15;;;5.10;99.90;;;;;;2603247;54;20031;31
2022/10/12 00:51:53;;;;;;;51.00;29.60;;;4.90;99.90;;;;;;2603325;54;20662;31
2022/10/12 00:54:31;;;;;;;45.33;26.70;;;5.10;99.90;;;;;;2603266;54;20053;31
2022/10/12 00:57:07;;;;;;;39.58;23.48;;;5.10;99.90;;;;;;2622059;46;20165;31
2022/10/12 00:59:44;;;;;;;45.97;25.33;;;4.90;99.90;;;;;;2603295;54;20149;31
2022/10/12 01:02:21;;;;;;;40.58;20.60;;;5.30;99.90;;;;;;2603240;54;20022;31
2022/10/12 01:04:56;;;;;;;40.90;22.75;;;4.80;99.90;;;;;;2603467;54;20122;31
2022/10/12 01:07:31;;;;;;;34.97;20.35;;;4.80;99.90;;;;;;2603483;54;20053;31
2022/10/12 01:10:10;;;;;;;38.67;21.20;;;4.70;99.90;;;;;;2603284;54;20053;31
2022/10/12 01:12:46;;;;;;;37.65;19.90;;;4.70;99.90;;;;;;2603317;54;20128;31
2022/10/12 01:15:23;;;;;;;39.70;22.03;;;4.70;99.90;;;;;;2603276;54;20030;31
2022/10/12 01:18:01;;;;;;;43.20;22.33;;;4.70;99.90;;;;;;2603330;54;20033;31
2022/10/12 01:20:59;;;;;;;43.65;23.88;;;5.20;99.90;;;;;;2603390;54;20050;31
2022/10/12 01:24:10;;;;;;;43.58;23.90;;;5.20;99.90;;;;;;2603329;54;20913;31
2022/10/12 01:27:02;;;;;;;44.17;23.35;;;4.60;99.90;;;;;;2602933;54;20057;31
2022/10/12 01:29:55;;;;;;;43.10;24.57;;;4.60;99.90;;;;;;2622004;46;20026;31
2022/10/12 01:32:36;;;;;;;43.20;22.35;;;4.50;99.90;;;;;;2622045;46;20048;31
2022/10/12 01:35:08;;;;;;;33.33;19.40;;;4.50;99.90;;;;;;2603284;54;20161;31
2022/10/12 01:37:45;;;;;;;31.63;18.93;;;4.50;99.90;;;;;;2603072;54;20818;31
2022/10/12 01:40:25;;;;;;;39.65;21.73;;;4.70;99.90;;;;;;2603250;54;20026;31
2022/10/12 01:42:59;;;;;;;34.38;17.17;;;4.70;99.90;;;;;;2603197;54;20803;31
2022/10/12 01:45:33;;;;;;;32.00;19.17;;;5.10;99.90;;;;;;2621487;46;20022;31
2022/10/12 01:48:11;;;;;;;35.20;19.13;;;4.50;99.90;;;;;;2603344;54;20773;31
2022/10/12 01:50:50;;;;;;;38.95;18.60;;;4.40;99.90;;;;;;2603222;54;20026;31
2022/10/12 01:53:30;;;;;;;39.85;21.45;;;4.50;99.90;;;;;;2603128;54;19942;31
2022/10/12 01:56:06;;;;;;;33.13;18.33;;;4.40;99.90;;;;;;2603163;54;20048;31
2022/10/12 01:58:51;;;;;;;26.17;16.30;;;5.00;99.90;;;;;;2603182;54;20041;31
2022/10/12 02:04:02;;;;;;;38.15;19.52;;;4.30;99.90;;;;;;2602964;54;20034;31
2022/10/12 02:06:38;;;;;;;32.40;17.40;;;4.30;99.90;;;;;;2602998;54;20809;31
2022/10/12 02:09:16;;;;;;;26.35;15.35;;;4.30;99.90;;;;;;2603202;54;20568;31
2022/10/12 02:11:51;;;;;;;29.93;16.90;;;4.30;99.90;;;;;;2603082;54;20078;31
2022/10/12 02:14:28;;;;;;;29.10;16.80;;;4.30;99.90;;;;;;2603254;54;21164;31
2022/10/12 02:19:39;;;;;;;25.88;16.02;;;4.20;99.90;;;;;;2701545;39;20473;31
2022/10/12 02:22:13;;;;;;;26.65;15.00;;;4.20;99.90;;;;;;2603100;54;19941;31
2022/10/12 02:24:50;;;;;;;26.35;14.43;;;4.20;99.90;;;;;;2602908;54;20031;31
2022/10/12 02:27:25;;;;;;;28.38;16.38;;;4.20;99.90;;;;;;2602779;54;21016;31
2022/10/12 02:29:59;;;;;;;22.52;12.85;;;4.10;99.90;;;;;;2621646;47;20029;31
2022/10/12 02:32:37;;;;;;;23.58;13.52;;;4.20;99.90;;;;;;2603066;54;20906;31
2022/10/12 02:35:19;;;;;;;26.80;14.05;;;4.40;99.90;;;;;;2603148;54;20893;31
2022/10/12 02:37:55;;;;;;;26.85;16.45;;;4.10;99.90;;;;;;2603005;54;20155;31
2022/10/12 02:40:33;;;;;;;24.98;14.23;;;4.60;99.90;;;;;;2764300;31;20053;31
2022/10/12 02:43:07;;;;;;;21.80;13.90;;;4.70;99.90;;;;;;2603012;54;20874;31
2022/10/12 02:45:45;;;;;;;26.70;17.13;;;4.10;99.90;;;;;;2621564;47;20884;31
2022/10/12 02:48:21;;;;;;;21.17;12.60;;;4.40;99.90;;;;;;2621429;47;20089;31
2022/10/12 02:51:00;;;;;;;24.95;14.07;;;4.20;99.90;;;;;;2603062;54;20022;31
2022/10/12 02:53:34;;;;;;;34.80;18.30;;;4.60;99.90;;;;;;2603151;54;20818;31
2022/10/12 02:56:12;;;;;;;25.90;14.35;;;4.10;99.90;;;;;;2603794;54;20027;31
2022/10/12 02:58:46;;;;;;;22.63;12.80;;;4.00;99.90;;;;;;2622218;46;20043;31
2022/10/12 03:01:22;;;;;;;25.42;14.00;;;4.00;99.90;;;;;;2603789;54;20922;31
2022/10/12 03:03:58;;;;;;;18.95;12.40;;;4.00;99.90;;;;;;2603622;54;20027;31
2022/10/12 03:06:35;;;;;;;29.40;16.85;;;4.30;99.90;;;;;;2603892;54;20080;31
2022/10/12 03:09:10;;;;;;;27.98;17.00;;;4.00;99.90;;;;;;2603625;54;20820;31
2022/10/12 03:11:46;;;;;;;27.00;15.55;;;4.00;99.90;;;;;;2603770;54;20030;31
2022/10/12 03:14:20;;;;;;;;;;;4.50;99.90;;;;;;2603881;54;20034;31
2022/10/12 03:16:55;;;;;;;36.85;20.10;;;4.00;99.90;;;;;;2622548;46;20771;31
2022/10/12 03:19:29;;;;;;;22.20;13.63;;;3.90;99.90;;;;;;2603736;54;20030;31
2022/10/12 03:22:06;;;;;;;22.02;14.02;;;4.20;99.90;;;;;;2603829;54;20042;31
2022/10/12 03:24:40;;;;;;;31.05;17.88;;;4.40;99.90;;;;;;2622399;46;20030;31
2022/10/12 03:27:15;;;;;;;29.10;15.60;;;3.90;99.90;;;;;;2603681;54;20824;31
2022/10/12 03:29:51;;;;;;;26.65;16.55;;;3.90;99.90;;;;;;2622032;46;20056;31
2022/10/12 03:32:26;;;;;;;;;;;4.50;99.90;;;;;;2604156;54;20063;31
2022/10/12 03:35:03;;;;;;;28.05;14.45;;;3.90;99.90;;;;;;2603700;54;20726;31
2022/10/12 03:37:42;;;;;;;29.15;15.70;;;3.90;99.90;;;;;;2603423;54;20962;31
2022/10/12 03:40:17;;;;;;;30.85;15.32;;;3.90;99.90;;;;;;2603439;54;20026;31
2022/10/12 03:42:53;;;;;;;24.17;14.13;;;3.90;99.90;;;;;;2603667;54;20870;31
2022/10/12 03:45:28;;;;;;;31.05;16.25;;;4.50;99.90;;;;;;2603655;54;20875;31
2022/10/12 03:48:02;;;;;;;31.45;17.50;;;3.90;99.90;;;;;;2603734;54;20062;31
2022/10/12 03:50:39;;;;;;;30.95;18.30;;;3.90;99.90;;;;;;2603414;54;20030;31
2022/10/12 03:53:17;;;;;;;30.40;17.60;;;3.90;99.90;;;;;;2622017;46;20932;31
2022/10/12 03:55:52;;;;;;;34.27;19.60;;;4.10;99.90;;;;;;2603660;54;20145;31
2022/10/12 03:58:28;;;;;;;34.95;18.88;;;3.80;99.90;;;;;;2603735;54;20027;31
2022/10/12 04:01:04;;;;;;;25.02;14.65;;;4.20;99.90;;;;;;2603545;54;20570;31
2022/10/12 04:03:38;;;;;;;27.73;16.55;;;3.80;99.90;;;;;;2603430;54;20833;31
2022/10/12 04:06:13;;;;;;;24.15;15.07;;;3.80;99.90;;;;;;2603230;54;20805;31
2022/10/12 04:08:52;;;;;;;27.75;16.10;;;4.30;99.90;;;;;;2603655;54;20031;31
2022/10/12 04:11:28;;;;;;;26.23;15.07;;;3.80;99.90;;;;;;2603417;54;20979;31
2022/10/12 04:14:06;;;;;;;26.95;15.40;;;3.80;99.90;;;;;;2603341;54;20924;31
2022/10/12 04:16:44;;;;;;;41.22;19.80;;;4.30;99.90;;;;;;2603518;54;20038;31
2022/10/12 04:19:19;;;;;;;30.55;18.55;;;4.10;99.90;;;;;;2603433;54;20916;31
2022/10/12 04:21:56;;;;;;;32.55;17.88;;;4.20;99.90;;;;;;2603471;54;20030;31
2022/10/12 04:24:34;;;;;;;32.35;17.10;;;4.20;99.90;;;;;;2603538;54;20050;31
2022/10/12 04:27:12;;;;;;;29.17;15.55;;;4.20;99.90;;;;;;2603589;54;20767;31
2022/10/12 04:29:48;;;;;;;29.13;17.07;;;3.70;99.90;;;;;;2603312;54;20042;31
2022/10/12 04:32:23;;;;;;;39.42;22.33;;;3.70;99.90;;;;;;2603530;54;20840;31
2022/10/12 04:34:57;;;;;;;34.03;20.35;;;4.20;99.90;;;;;;2603350;54;20038;31
2022/10/12 04:37:32;;;;;;;32.20;17.75;;;3.60;99.90;;;;;;2603343;54;20800;31
2022/10/12 04:40:14;;;;;;;32.75;19.17;;;3.60;99.90;;;;;;2603240;54;20049;31
2022/10/12 04:42:51;;;;;;;36.15;19.88;;;3.60;99.90;;;;;;2603029;54;20038;31
2022/10/12 04:45:27;;;;;;;29.90;18.15;;;3.50;99.90;;;;;;2603386;54;20900;31
2022/10/12 04:48:02;;;;;;;28.27;16.75;;;4.00;99.90;;;;;;2603207;54;20929;31
2022/10/12 04:50:37;;;;;;;39.80;19.80;;;3.90;99.90;;;;;;2621800;46;20828;31
2022/10/12 04:53:12;;;;;;;34.22;18.05;;;3.50;99.90;;;;;;2602848;54;20891;31
2022/10/12 04:55:49;;;;;;;37.23;20.93;;;3.80;99.90;;;;;;2602068;54;20042;31
2022/10/12 04:58:26;;;;;;;33.88;18.48;;;3.50;99.90;;;;;;2602560;54;20026;31
2022/10/12 05:01:00;;;;;;;31.88;17.38;;;3.50;99.90;;;;;;2603442;54;20042;31
2022/10/12 05:03:34;;;;;;;31.70;15.15;;;3.50;99.90;;;;;;2603084;54;20861;31
2022/10/12 05:06:15;;;;;;;25.00;14.52;;;3.50;99.90;;;;;;2603535;54;20026;31
2022/10/12 05:08:50;;;;;;;25.73;15.03;;;3.70;99.90;;;;;;2621790;46;20037;31
2022/10/12 05:11:32;;;;;;;45.10;20.25;;;3.40;99.90;;;;;;2603173;54;20838;31
2022/10/12 05:14:07;;;;;;;36.40;18.63;;;3.90;99.90;;;;;;2603046;54;20036;31
2022/10/12 05:16:44;;;;;;;35.67;16.85;;;3.40;99.90;;;;;;2602937;54;20113;31
2022/10/12 05:19:20;;;;;;;30.58;16.65;;;3.90;99.90;;;;;;2603181;54;20791;31
2022/10/12 05:21:55;;;;;;;;;;;3.80;99.90;;;;;;2622178;46;20909;31
2022/10/12 05:24:29;;;;;;;30.58;15.63;;;3.40;99.90;;;;;;2603379;54;19934;31
2022/10/12 05:27:07;;;;;;;49.88;24.17;;;3.70;99.90;;;;;;2621912;46;20166;31
2022/10/12 05:29:43;;;;;;;32.97;18.97;;;3.40;99.90;;;;;;2603198;54;20032;31
2022/10/12 05:32:17;;;;;;;44.63;23.77;;;3.40;99.90;;;;;;2603078;54;20820;31
2022/10/12 05:34:53;;;;;;;37.20;21.43;;;3.40;99.90;;;;;;2619674;46;20018;31
2022/10/12 05:37:28;;;;;;;44.50;23.60;;;3.80;99.90;;;;;;2603385;54;20257;31
2022/10/12 05:40:06;;;;;;;41.50;22.48;;;3.50;99.90;;;;;;2603257;54;20037;31
2022/10/12 05:42:46;;;;;;;40.50;18.80;;;3.50;99.90;;;;;;2603314;54;20850;31
2022/10/12 05:45:24;;;;;;;37.80;21.90;;;4.10;99.90;;;;;;2602368;54;20027;31
2022/10/12 05:48:02;;;;;;;33.50;19.00;;;3.70;99.90;;;;;;2603226;54;20789;31
2022/10/12 05:50:40;;;;;;;26.65;16.85;;;3.90;99.90;;;;;;2603394;54;20031;31
2022/10/12 05:53:15;;;;;;;33.65;19.50;;;4.10;99.90;;;;;;2603011;54;20885;31
2022/10/12 05:55:57;;;;;;;37.35;22.17;;;4.30;99.90;;;;;;2621603;46;20113;31
2022/10/12 05:58:38;;;;;;;29.95;17.65;;;4.70;99.90;;;;;;2603115;54;20054;31
2022/10/12 06:01:14;;;;;;;39.10;19.92;;;4.80;99.90;;;;;;2607406;46;20027;31
2022/10/12 06:03:49;;;;;;;31.40;18.30;;;5.20;99.90;;;;;;2603211;54;20033;31
2022/10/12 06:06:24;;;;;;;32.97;19.25;;;5.30;99.90;;;;;;2602999;54;20033;31
2022/10/12 06:08:59;;;;;;;33.17;20.07;;;5.70;99.90;;;;;;2603054;54;20027;31
2022/10/12 06:11:34;;;;;;;37.17;18.37;;;5.70;99.90;;;;;;2621694;46;19950;31
2022/10/12 06:14:16;;;;;;;33.90;19.85;;;6.60;99.90;;;;;;2621337;46;20029;31
2022/10/12 06:16:51;;;;;;;30.83;20.70;;;6.30;99.90;;;;;;2621077;47;20727;31
2022/10/12 06:19:30;;;;;;;34.73;20.67;;;6.40;99.90;;;;;;2602908;54;20030;31
2022/10/12 06:22:06;;;;;;;32.97;21.38;;;6.70;99.90;;;;;;2602998;54;20037;31
2022/10/12 06:24:42;;;;;;;37.20;21.52;;;6.90;99.90;;;;;;2621407;47;20081;31
2022/10/12 06:27:18;;;;;;;31.20;19.95;;;7.20;99.90;;;;;;2621407;47;20027;31
2022/10/12 06:29:56;;;;;;;36.95;19.70;;;7.50;99.90;;;;;;2602925;54;20046;31
2022/10/12 06:32:33;;;;;;;33.38;19.42;;;8.00;99.90;;;;;;2603746;54;20057;31
2022/10/12 06:35:11;;;;;;;36.80;19.83;;;8.20;99.90;;;;;;2603841;54;20927;31
2022/10/12 06:37:54;;;;;;;36.77;18.77;;;8.70;99.90;;;;;;2621927;46;20031;31
2022/10/12 06:40:29;;;;;;;28.42;18.73;;;9.20;99.90;;;;;;2622345;46;20290;31
2022/10/12 06:43:05;;;;;;;32.42;20.30;;;9.70;99.90;;;;;;2602927;54;20035;31
2022/10/12 06:45:44;;;;;;;28.80;18.05;;;10.00;99.90;;;;;;2603724;54;22377;31
2022/10/12 06:48:18;;;;;;;25.45;17.35;;;10.40;99.90;;;;;;2603919;54;20836;31
2022/10/12 06:50:53;;;;;;;29.00;19.35;;;10.70;99.90;;;;;;2604006;54;20855;31
2022/10/12 06:53:33;;;;;;;34.17;19.35;;;11.00;99.90;;;;;;2603195;54;20030;31
2022/10/12 06:56:11;;;;;;;31.70;19.50;;;11.30;99.90;;;;;;2603440;54;20030;31
2022/10/12 06:58:49;;;;;;;26.15;17.80;;;11.50;99.90;;;;;;2603611;54;20867;31
2022/10/12 07:01:28;;;;;;;32.15;18.90;;;11.80;99.90;;;;;;2603314;54;20888;31
2022/10/12 07:04:02;;;;;;;34.70;18.20;;;12.20;99.90;;;;;;2603726;54;20052;31
2022/10/12 07:06:36;;;;;;;33.90;18.75;;;12.60;99.90;;;;;;2603777;54;20086;31
2022/10/12 07:09:13;;;;;;;30.80;19.48;;;12.80;99.90;;;;;;2621712;46;20053;31
2022/10/12 07:11:49;;;;;;;27.40;18.70;;;12.70;99.90;;;;;;2603793;54;20822;31
2022/10/12 07:14:24;;;;;;;33.28;19.17;;;13.10;99.90;;;;;;2603804;54;20026;31
2022/10/12 07:17:02;;;;;;;32.97;19.60;;;13.10;99.90;;;;;;2603744;54;20850;31
2022/10/12 07:19:42;;;;;;;29.83;17.75;;;13.30;99.90;;;;;;2622129;46;20038;31
2022/10/12 07:22:16;;;;;;;32.65;18.85;;;13.60;99.90;;;;;;2603639;54;20873;31
2022/10/12 07:24:52;;;;;;;35.33;20.05;;;13.90;99.90;;;;;;2603106;54;20034;31
2022/10/12 07:27:28;;;;;;;31.35;19.50;;;14.10;99.90;;;;;;2622314;46;20030;31
2022/10/12 07:30:03;;;;;;;30.63;19.95;;;14.70;99.90;;;;;;2603808;54;20945;31
2022/10/12 07:32:41;;;;;;;31.27;20.45;;;14.40;99.90;;;;;;2603446;54;20025;31
2022/10/12 07:35:16;;;;;;;31.27;20.30;;;14.70;99.90;;;;;;2603795;54;20902;31
2022/10/12 07:37:51;;;;;;;35.97;22.03;;;14.70;99.90;;;;;;2603726;54;20985;31
2022/10/12 07:40:26;;;;;;;35.70;21.05;;;14.80;99.90;;;;;;2621751;46;20903;31
2022/10/12 07:43:02;;;;;;;33.40;21.73;;;15.30;99.90;;;;;;2603362;54;19935;31
2022/10/12 07:45:49;;;;;;;29.15;22.13;;;15.20;99.90;;;;;;2603461;54;20875;31
2022/10/12 07:48:27;;;;;;;37.35;21.90;;;15.60;99.90;;;;;;2607728;46;20054;31
2022/10/12 07:51:06;;;;;;;37.00;23.45;;;15.70;99.90;;;;;;2603656;54;20023;31
2022/10/12 07:53:40;;;;;;;35.72;22.38;;;16.00;99.90;;;;;;2603754;54;20041;31
2022/10/12 07:56:16;;;;;;;33.88;21.75;;;16.00;99.90;;;;;;2622148;46;20901;31
2022/10/12 07:58:52;;;;;;;34.83;22.20;;;16.10;99.90;;;;;;2603540;54;20030;31
2022/10/12 08:01:33;;;;;;;35.75;22.50;;;16.10;99.90;;;;;;2603361;54;20839;31
2022/10/12 08:04:11;;;;;;;36.65;21.65;;;16.20;99.90;;;;;;2622279;46;20027;31
2022/10/12 08:06:48;;;;;;;30.40;21.50;;;16.70;99.90;;;;;;2603722;54;20037;31
2022/10/12 08:09:23;;;;;;;36.70;23.55;;;16.70;99.90;;;;;;2603602;54;20202;31
2022/10/12 08:12:01;;;;;;;33.88;23.33;;;16.70;99.90;;;;;;2603456;54;20919;31
2022/10/12 08:14:37;;;;;;;35.42;20.17;;;16.90;99.90;;;;;;2603517;54;20027;31
2022/10/12 08:17:11;;;;;;;33.78;22.17;;;17.30;99.90;;;;;;2622138;46;20755;31
2022/10/12 08:19:49;;;;;;;34.03;21.10;;;17.40;99.90;;;;;;2621958;46;20113;31
2022/10/12 08:22:24;;;;;;;31.77;20.47;;;17.60;99.90;;;;;;2603516;54;20714;31
2022/10/12 08:25:00;;;;;;;30.50;21.42;;;17.70;99.90;;;;;;2603207;54;20030;31
2022/10/12 08:27:37;;;;;;;36.75;20.90;;;17.70;99.90;;;;;;2603312;54;20030;31
2022/10/12 08:30:16;;;;;;;37.33;20.57;;;17.70;99.90;;;;;;2603382;54;20839;31
2022/10/12 08:32:51;;;;;;;33.55;20.65;;;18.00;99.90;;;;;;2611106;46;20261;31
2022/10/12 08:35:30;;;;;;;31.92;20.02;;;18.10;99.90;;;;;;2603496;54;20022;31
2022/10/12 08:38:06;;;;;;;33.95;18.65;;;18.20;99.90;;;;;;2621570;46;20026;31
2022/10/12 08:40:46;;;;;;;30.60;19.58;;;18.30;99.90;;;;;;2603474;54;20850;31
2022/10/12 08:43:26;;;;;;;35.65;20.30;;;18.40;99.90;;;;;;2602571;54;20916;31
2022/10/12 08:46:03;;;;;;;31.90;18.85;;;18.30;99.90;;;;;;2603381;54;20031;31
2022/10/12 08:48:44;;;;;;;33.28;18.98;;;18.30;99.90;;;;;;2603143;54;20985;31
2022/10/12 08:51:23;;;;;;;33.50;19.30;;;18.50;99.90;;;;;;2603141;54;20033;31
2022/10/12 08:54:01;;;;;;;31.30;18.07;;;18.50;99.90;;;;;;2603630;54;20056;31
2022/10/12 08:56:39;;;;;;;23.35;14.30;;;18.70;99.90;;;;;;2603457;54;20030;31
2022/10/12 08:59:13;;;;;;;31.77;17.48;;;18.60;99.90;;;;;;2720558;39;22272;31
2022/10/12 09:01:58;;;;;;;25.08;14.75;;;18.80;99.90;;;;;;2603439;54;20822;31
2022/10/12 09:04:42;;;;;;;27.20;14.38;;;19.00;99.90;;;;;;2603212;54;20914;31
2022/10/12 09:07:22;;;;;;;24.20;12.32;;;19.20;99.90;;;;;;2603493;54;20763;31
2022/10/12 09:10:05;;;;;;;24.35;12.70;;;19.30;99.90;;;;;;2603274;54;19934;31
2022/10/12 09:12:46;;;;;;;22.20;12.85;;;19.40;99.90;;;;;;2603381;54;20070;31
2022/10/12 09:15:23;;;;;;;23.50;12.25;;;19.40;99.90;;;;;;2603362;54;20088;31
2022/10/12 09:18:01;;;;;;;22.20;11.90;;;19.50;99.90;;;;;;2603237;54;20081;31
2022/10/12 09:20:47;;;;;;;22.95;13.00;;;19.50;99.90;;;;;;2603319;54;20301;31
2022/10/12 09:23:29;;;;;;;22.92;12.05;;;19.30;99.90;;;;;;2603263;54;20031;31
2022/10/12 09:26:07;;;;;;;24.23;12.25;;;19.40;99.90;;;;;;2603194;54;20053;31
2022/10/12 09:28:43;;;;;;;23.55;11.50;;;19.50;99.90;;;;;;2603207;54;20056;31
2022/10/12 09:31:36;;;;;;;24.17;11.75;;;19.40;99.90;;;;;;2603429;54;20033;31
2022/10/12 09:34:10;;;;;;;19.63;9.82;;;19.60;99.90;;;;;;2621623;46;20026;31
2022/10/12 09:36:54;;;;;;;22.55;10.65;;;19.50;99.90;;;;;;2603192;54;20030;31
2022/10/12 09:39:36;;;;;;;18.58;11.52;;;19.40;99.90;;;;;;2603240;54;20030;31
2022/10/12 09:42:14;;;;;;;25.93;13.53;;;19.40;99.90;;;;;;2603055;54;20785;31
2022/10/12 09:44:51;;;;;;;23.10;10.30;;;19.50;99.90;;;;;;2602973;54;20918;31
2022/10/12 09:47:26;;;;;;;22.35;9.90;;;19.50;99.90;;;;;;2603178;54;20250;31
2022/10/12 09:50:03;;;;;;;24.35;12.93;;;19.40;99.90;;;;;;2603069;54;20113;31
2022/10/12 09:52:45;;;;;;;22.98;9.75;;;19.40;99.90;;;;;;2603072;54;20030;31
2022/10/12 09:55:26;;;;;;;14.20;7.80;;;19.50;99.90;;;;;;2621345;46;20882;31
2022/10/12 09:58:01;;;;;;;18.52;9.38;;;19.50;99.90;;;;;;2621335;46;20057;31
2022/10/12 10:00:36;;;;;;;19.27;10.02;;;19.50;99.90;;;;;;2603439;54;20904;31
2022/10/12 10:03:23;;;;;;;17.23;8.75;;;19.60;99.90;;;;;;2603003;54;20053;31
2022/10/12 10:06:04;;;;;;;15.07;7.60;;;19.60;99.90;;;;;;2603253;54;20030;31
2022/10/12 10:08:43;;;;;;;13.95;8.15;;;19.50;99.90;;;;;;2603104;54;20794;31
2022/10/12 10:11:22;;;;;;;18.55;8.10;;;19.60;99.90;;;;;;2603406;54;20313;31
2022/10/12 10:13:58;;;;;;;15.13;7.43;;;19.60;99.90;;;;;;2603103;54;20030;31
2022/10/12 10:16:34;;;;;;;16.58;7.18;;;19.60;99.90;;;;;;2603031;54;20058;31
2022/10/12 10:19:13;;;;;;;13.45;6.75;;;19.50;99.90;;;;;;2603021;54;20893;31
2022/10/12 10:21:48;;;;;;;14.88;6.65;;;19.50;99.90;;;;;;2603258;54;20275;31
2022/10/12 10:24:27;;;;;;;16.50;6.97;;;19.50;99.90;;;;;;2602867;54;20888;31
2022/10/12 10:27:07;;;;;;;12.53;6.23;;;19.40;99.90;;;;;;2603148;54;20054;31
2022/10/12 10:29:42;;;;;;;15.73;6.78;;;19.40;99.90;;;;;;2603344;54;20121;31
2022/10/12 10:32:22;;;;;;;19.65;15.45;;;19.80;99.90;;;;;;2602952;54;20030;31
2022/10/12 10:35:05;;;;;;;12.60;5.85;;;19.50;99.90;;;;;;2602909;54;20026;31
2022/10/12 10:37:41;;;;;;;14.73;6.80;;;19.50;99.90;;;;;;2621166;47;20806;31
2022/10/12 10:40:20;;;;;;;14.23;5.90;;;19.40;99.90;;;;;;2603167;54;20045;31
2022/10/12 10:42:58;;;;;;;15.68;6.00;;;19.50;99.90;;;;;;2603238;54;20819;31
2022/10/12 10:45:35;;;;;;;13.73;5.13;;;19.40;99.90;;;;;;2603106;54;20030;31
2022/10/12 10:48:11;;;;;;;14.43;5.27;;;19.30;99.90;;;;;;2621397;47;20032;31
2022/10/12 10:50:46;;;;;;;14.03;4.80;;;19.30;99.90;;;;;;2603112;54;20023;31
2022/10/12 10:53:22;;;;;;;11.03;4.80;;;19.30;99.90;;;;;;2602769;54;20034;31
2022/10/12 10:55:57;;;;;;;;;;;19.30;99.90;;;;;;2603287;54;20326;31
2022/10/12 10:58:38;;;;;;;7.80;3.50;;;19.30;99.90;;;;;;2621454;47;19934;31
2022/10/12 11:01:17;;;;;;;9.57;4.10;;;19.10;99.90;;;;;;2602909;54;20928;31
2022/10/12 11:03:56;;;;;;;7.90;3.50;;;19.10;99.90;;;;;;2602798;54;20026;31
2022/10/12 11:06:37;;;;;;;9.00;3.27;;;19.10;99.90;;;;;;2621127;47;20822;31
2022/10/12 11:09:15;;;;;;;8.20;3.08;;;19.00;99.90;;;;;;2621502;47;20060;31
2022/10/12 11:11:53;;;;;;;8.50;3.33;;;18.80;99.90;;;;;;2602930;54;20027;31
2022/10/12 11:14:32;;;;;;;11.25;5.20;;;18.90;99.90;;;;;;2603163;54;20033;31
2022/10/12 11:17:09;;;;;;;10.60;3.95;;;18.80;99.90;;;;;;2622014;46;20866;31
2022/10/12 11:19:44;;;;;;;9.07;3.45;;;18.80;99.90;;;;;;2603886;54;20728;31
2022/10/12 11:22:21;;;;;;;9.25;3.55;;;18.80;99.90;;;;;;2603685;54;20844;31
2022/10/12 11:24:59;;;;;;;11.07;2.90;;;18.60;99.90;;;;;;2603840;54;20023;31
2022/10/12 11:27:38;;;;;;;10.70;3.00;;;18.80;99.90;;;;;;2603682;54;20026;31
2022/10/12 11:30:19;;;;;;;9.63;3.28;;;18.90;99.90;;;;;;2603691;54;20031;31
2022/10/12 11:32:55;;;;;;;12.98;4.20;;;18.60;99.90;;;;;;2603557;54;20026;31
2022/10/12 11:35:29;;;;;;;;;;;18.70;99.90;;;;;;2702702;39;21097;31
2022/10/12 11:38:04;;;;;;;12.93;3.33;;;18.30;99.90;;;;;;2603407;54;20743;31
2022/10/12 11:40:41;;;;;;;12.93;4.13;;;18.20;99.90;;;;;;2603963;54;20053;31
2022/10/12 11:43:38;;;;;;;11.20;4.60;;;18.10;99.90;;;;;;2603584;54;20849;31
2022/10/12 11:46:18;;;;;;;12.05;4.93;;;18.10;99.90;;;;;;2603436;54;20030;31
2022/10/12 11:48:54;;;;;;;10.98;3.80;;;17.90;99.90;;;;;;2603331;54;20053;31
2022/10/12 11:51:32;;;;;;;13.10;3.40;;;17.90;99.90;;;;;;2603470;54;20998;31
2022/10/12 11:54:12;;;;;;;10.98;2.72;;;18.00;99.90;;;;;;2603492;54;20035;31
2022/10/12 11:56:50;;;;;;;10.50;3.28;;;17.80;99.90;;;;;;2603488;54;20066;31
2022/10/12 11:59:29;;;;;;;7.32;3.10;;;17.80;99.90;;;;;;2603511;54;20857;31
2022/10/12 12:02:13;;;;;;;11.90;3.73;;;17.70;99.90;;;;;;2603502;54;20793;31
2022/10/12 12:04:49;;;;;;;10.47;3.83;;;17.70;99.90;;;;;;2603627;54;20250;31
2022/10/12 12:07:52;;;;;;;9.55;2.90;;;17.70;99.90;;;;;;2603724;54;20057;31
2022/10/12 12:11:03;;;;;;;10.60;3.70;;;17.70;99.90;;;;;;2603281;54;20033;31
2022/10/12 12:13:39;;;;;;;6.18;3.13;;;17.60;99.90;;;;;;2603571;54;19942;31
2022/10/12 12:16:44;;;;;;;9.80;3.25;;;17.60;99.90;;;;;;2603298;54;20870;31
2022/10/12 12:19:37;;;;;;;8.95;3.03;;;17.40;99.90;;;;;;2603360;54;20105;31
2022/10/12 12:22:31;;;;;;;7.67;3.37;;;17.40;99.90;;;;;;2621868;46;20034;31
2022/10/12 12:25:18;;;;;;;9.05;3.20;;;17.30;99.90;;;;;;2603285;54;20255;31
2022/10/12 12:27:54;;;;;;;9.57;3.20;;;17.30;99.90;;;;;;2599588;54;20138;31
2022/10/12 12:30:37;;;;;;;9.93;2.53;;;17.30;99.90;;;;;;2617791;46;20053;31
2022/10/12 12:33:40;;;;;;;8.37;3.23;;;17.20;99.90;;;;;;2598840;54;20169;31
2022/10/12 12:36:27;;;;;;;4.38;1.83;;;17.20;99.90;;;;;;2598505;54;20930;31
2022/10/12 12:39:01;;;;;;;6.45;1.85;;;17.20;99.90;;;;;;2617221;46;20992;31
2022/10/12 12:41:49;;;;;;;6.07;2.40;;;17.10;99.90;;;;;;2598781;54;20038;31
2022/10/12 12:44:39;;;;;;;7.90;2.97;;;17.10;99.90;;;;;;2617102;46;22284;31
2022/10/12 12:47:24;;;;;;;12.48;3.05;;;17.00;99.90;;;;;;2605384;54;20019;31
2022/10/12 12:50:34;;;;;;;10.60;2.97;;;17.00;99.90;;;;;;2621955;46;20089;31
2022/10/12 12:56:02;;;;;;;6.25;2.70;;;16.90;99.90;;;;;;2603453;54;24063;31
2022/10/12 12:58:57;;;;;;;7.00;2.50;;;16.90;99.90;;;;;;2603412;54;24955;31
2022/10/12 13:01:48;;;;;;;7.80;2.25;;;16.80;99.90;;;;;;2603401;54;20034;31
2022/10/12 13:04:22;;;;;;;6.70;2.63;;;16.90;99.90;;;;;;2603316;54;20116;31
2022/10/12 13:07:12;;;;;;;7.45;2.45;;;16.90;99.90;;;;;;2603252;54;20941;31
2022/10/12 13:09:46;;;;;;;7.70;2.15;;;16.80;99.90;;;;;;2603356;54;20920;31
2022/10/12 13:12:51;;;;;;;11.88;3.45;;;16.80;99.90;;;;;;2603502;54;20839;31
2022/10/12 13:15:33;;;;;;;7.50;2.72;;;16.80;99.90;;;;;;2602996;54;20099;31
2022/10/12 13:18:33;;;;;;;8.60;2.75;;;16.70;99.90;;;;;;2621712;46;20037;31
2022/10/12 13:21:23;;;;;;;7.20;2.35;;;16.80;99.90;;;;;;2621857;46;20965;31
2022/10/12 13:24:04;;;;;;;8.57;2.45;;;16.70;99.90;;;;;;2603302;54;20901;31
2022/10/12 13:26:38;;;;;;;10.70;2.90;;;16.60;99.90;;;;;;2603093;54;21017;31
2022/10/12 13:29:23;;;;;;;6.72;2.75;;;16.60;99.90;;;;;;2621613;46;20030;31
2022/10/12 13:32:00;;;;;;;9.50;2.73;;;16.80;99.90;;;;;;2603202;54;20026;31
2022/10/12 13:34:37;;;;;;;5.43;2.03;;;16.60;99.90;;;;;;2621616;46;20904;31
2022/10/12 13:37:13;;;;;;;12.00;2.30;;;16.50;99.90;;;;;;2603389;54;20257;31
2022/10/12 13:39:48;;;;;;;7.40;2.20;;;16.50;99.90;;;;;;2603151;54;20056;31
2022/10/12 13:42:26;;;;;;;6.45;2.55;;;16.80;99.90;;;;;;2621698;46;20255;31
2022/10/12 13:45:05;;;;;;;16.25;10.05;;;16.50;99.90;;;;;;2621494;46;20046;31
2022/10/12 13:47:44;;;;;;;15.18;8.43;;;16.50;99.90;;;;;;2603232;54;20857;31
2022/10/12 13:50:19;;;;;;;9.93;6.18;;;16.60;99.90;;;;;;2603345;54;20065;31
2022/10/12 13:52:54;;;;;;;7.35;3.67;;;16.40;99.90;;;;;;2603303;54;20014;31
2022/10/12 13:55:30;;;;;;;7.90;2.00;;;16.40;99.90;;;;;;2603157;54;20022;31